Carol Stream, IL (60116)

7:06 AM CST on December 28, 2014 (GMT -0600)
Merbach Ct | Change Station
CLOSE
Current Station
Personal Weather Station
Location: Carol Stream, IL
Elevation: 794 ft
Nearby Weather Stations

Elev 794 ft 41.93 °N, 88.13 °W | Updated 1 second ago

Clear
Clear
21.7 °F
Feels Like 18 °F
N
3.1
Wind Variable Wind from West
Gusts 6.0 mph

Today
High -- | Low -- °F
--% Chance of Precip.
Yesterday
High -- | Low -- °F
Precip. -- in
7:19 AM 4:28 PM
Waxing Crescent, 47% visible
Pressure 30.17 in
Visibility 10.0 miles
Clouds Clear
Windchill 18 °F
Dew Point 18 °F
Humidity 86%
Rainfall 0.00 in
Snow Depth Not available.
UV 0 out of 12
Pollen .10 out of 12
Air Quality Not available.
Flu Activity Not available.
METAR KDPA 281252Z 26004KT 10SM CLR M06/M08 A3014 RMK AO2 SLP217 T10561078

More Conditions Fewer Conditions

Pressure 30.17 in
Visibility 10.0 miles
Clouds Clear
Windchill 18 °F
Dew Point 18 °F
Humidity 86%
Rainfall 0.00 in
Snow Depth Not available.
UV 0 out of 12
Pollen .10 out of 12
Air Quality Not available.
Flu Activity Not available.
METAR KDPA 281252Z 26004KT 10SM CLR M06/M08 A3014 RMK AO2 SLP217 T10561078

More Conditions Fewer Conditions

10-Day Weather Forecast

Almanac

Astronomy

Dec. 28, 2014 Rise Set
Actual Time
Civil Twilight
Nautical Twilight
Astronomical Twilight
Moon
Length of Visible Light
Length of Day
Tomorrow will be .
, % of the Moon is Illuminated

Today's Extremes

State Highs State Lows

Community

WunderPhotos

Upload Photos

1,781,256 photos uploaded!

WunderBlogs® & News

Nearby

Air Quality

  Air Quality AQ Index Pollutant
Not available.

Snow Depth

Station Depth Elevation

Earthquake Activity

City Distance Mag. Time & Date
Minimum magnitude displayed is 2.5.

Coastal Water Temperatures

Place Temperature

Nearby Weather Stations